Nearby METAR Reports

 

YMML - Melbourne Intl A, Australia
Distance from station: SSW 13km
Updated: Sun, 19-Aug-2018 12:00am AEST
Mostly Cloudy
Mostly Cloudy
 Wind from W
Wind: W 33 km/h
Temperature: 6°C
Wind Chill: 1°C
Dew Point: 2°C
Humidity: 76%
Barometer: 1012 hPa
Clouds: Mostly Cloudy
Visibility: 10 km
Cloud details: Few Clouds 1219 m
Mostly Cloudy 5182 m
2018/08/18 14:00 YMML 181400Z 27018KT 9999 FEW040 BKN170 06/02 Q1012
YMEN - Melbourne/Essend, Australia
Distance from station: S 16km
Updated: Sun, 19-Aug-2018 12:00am AEST
Clear
Clear
 Wind from WNW
Wind: WNW 24 km/h
Temperature: 6°C
Wind Chill: 2°C
Dew Point: 4°C
Humidity: 87%
Barometer: 1012 hPa
Clouds: Clear
Visibility: 10 km
2018/08/18 14:00 YMEN 181400Z AUTO 29013KT 9999 // NCD 06/04 Q1012
 
YMAV - Avalon Airport, Australia
Distance from station: SW 63km
Updated: Sun, 19-Aug-2018 12:00am AEST
Light drizzle, Mostly cloudy
Light drizzle, Mostly cloudy
 Wind from WNW
Wind: WNW 39 km/h
Temperature: 7°C
Wind Chill: 2°C
Dew Point: 5°C
Humidity: 87%
Barometer: 1012 hPa
Summary: Light Drizzle
Clouds: Mostly Cloudy
Visibility: 10 km
Cloud details: Partly Cloudy 2316 m
Mostly Cloudy 3048 m
2018/08/18 14:00 YMAV 181400Z AUTO 29021KT 9999 -DZ SCT076 BKN100 07/05 Q1012

Metar display script from Saratoga-Weather.org